Calvia, Spain
Current Conditions -  °F | °C
As of 10:30 PM on Friday 31 Oct 2014 (Local Time) from LEPA Reporting Station
Few Clouds Few Clouds  
Wind Chill: 61°   Ceiling: Unl
Heat Index: 61°   Visibility: 6mi
Dew Point: 59°   Wind: 2mph
Humidity: 94%   Direction: 30°NNE
Pressure: 30.24"   Gusts: NA
Location:  39.57°N, 2.51°E
Report Text: LEPA 312130Z 03002KT 9999 FEW035 16/15 Q1024 NOSIG
Loading
Personal Weather Stations






























Interactive Weather Map
Tropical Storm Tracking
New forecast layout! Learn more

10-Day Weather Forecast

Advertisements
Track Severe Weather on mobile